Racecast

By the Moon's Light: 3rd Annual

Wilson Christian · 5000m · Boys · Compiled · NC

74 runners from 1 division

These divisions were run separately. This is how their times compare, not how they finished — the places and scores below were never contested.

View full meet →

Team scores

Place Team Points 12345 67
1 Wilson Christian (NC) 25 1 2 4 8 10 14 28
2 Overhills (NC) 65 5 6 13 17 24 29 30
3 Cape Fear Academy (NC) 71 3 12 16 19 21 22 35
4 Research Triangle (NC) 102 7 9 26 27 33 42 44
5 Hilltop Christian (NC) 145 18 20 34 36 37 51
6 Faith Christian (NC) 158 23 25 31 32 47
7 Rocky Mount Academy (NC) 181 11 39 40 43 48 49 50
8 Greenville Christian (NC) 185 15 38 41 45 46

Not scored, fewer than five finishers: Rosewood (3), Youngsville Academy (3), Faith Christian Rocky Mount (2), Faith Christian (1)

Rating scale ?

Results

Place Athlete Grade School Time Rating Points Actual race
1 Lin Scott 11 Wilson Christian (NC) 1 17:05.8 121.5 1 1
2 Brett Walston 11 Wilson Christian (NC) 2 17:22.4 119.6 2 2
3 Christian Miller 9 Cape Fear Academy (NC) 1 17:27.4 119.0 3 3
4 Connor Ford 9 Wilson Christian (NC) 3 17:35.9 118.0 4 4
5 Noah Chevalier 12 Overhills (NC) 1 17:37.0 117.9 5 5
6 Jasper Hunter 10 Overhills (NC) 2 17:47.4 116.8 6 6
7 Wyatt Hanson 9 Research Triangle (NC) 1 17:51.1 116.4 7 7
8 Seth Trull 12 Wilson Christian (NC) 4 18:17.5 113.6 8 8
9 Aarav Parikh 10 Research Triangle (NC) 2 18:19.7 113.3 9 9
10 Alexander Herndon 10 Wilson Christian (NC) 5 18:32.2 112.1 10 10
11 Jackson Lewis - Rocky Mount Academy (NC) 1 18:52.0 110.1 11 11
12 Ian White 11 Cape Fear Academy (NC) 2 19:04.6 108.9 12 12
13 Chandler Robertson - Faith Christian (IN) 1 19:12.7 108.1 13
14 Tristan Smith 10 Overhills (NC) 3 19:23.4 107.2 13 14
15 Samuel Herndon 10 Wilson Christian (NC) 6 19:27.5 106.8 14 15
16 Brody Pollard 8 Greenville Christian (TX) 1 19:34.8 131.1 15 16
17 Lane Britt 10 Cape Fear Academy (NC) 3 19:41.9 105.5 16 17
18 Andon Timmons 11 Rosewood (NC) 1 19:47.0 105.0 18
19 Alex Jones 12 Rosewood (NC) 2 19:50.3 104.7 19
20 Jacob Cruz 12 Overhills (NC) 4 19:50.6 104.7 17 20
21 Ian House 7 Hilltop Christian (NC) 1 20:02.0 128.1 18 21
22 Tegan Adler 10 Cape Fear Academy (NC) 4 20:03.7 103.6 19 22
23 Luke Jones 9 Hilltop Christian (NC) 2 20:05.5 103.4 20 23
24 Owen Holt 7 Cape Fear Academy (NC) 5 20:08.3 127.4 21 24
25 Max Sherman 11 Cape Fear Academy (NC) 6 20:08.6 103.1 22 25
26 Nicholas Kennedy - Faith Christian (IN) 1 20:18.7 102.3 23 26
27 Daniel Gomez 9 Overhills (NC) 5 20:25.1 101.8 24 27
28 Jacob Garner 12 Faith Christian (IN) 2 20:26.5 101.6 25 28
29 Aryan Parikh 10 Research Triangle (NC) 3 20:35.3 100.9 26 29
30 Holden Heeks 9 Research Triangle (NC) 4 20:52.2 99.5 27 30
31 Brayden Joyner 11 Wilson Christian (NC) 7 20:54.4 99.4 28 31
32 Draven Jenkins 9 Overhills (NC) 6 20:58.9 99.0 29 32
33 DJ Scott 11 Wilson Christian (NC) 8 21:05.5 98.5 33
34 Aiden O'Leary 9 Overhills (NC) 7 21:07.8 98.3 30 34
35 Sean Thompson - Faith Christian (IN) 3 21:16.8 97.6 31 35
36 Eli Hardison - Faith Christian (IN) 4 21:17.7 97.6 32 36
37 Xavier Mueller 12 Overhills (NC) 8 21:33.4 96.4 37
38 Lucas Yocco 12 Overhills (NC) 9 21:37.1 96.1 38
39 August McCain 9 Research Triangle (NC) 5 21:37.5 96.1 33 39
40 Alexander West 8 Hilltop Christian (NC) 3 21:38.0 118.6 34 40
41 John Dugan 8 Cape Fear Academy (NC) 7 21:38.4 118.6 35 41
42 Trilton Jones 11 Hilltop Christian (NC) 4 21:39.6 95.9 36 42
43 Everett House 11 Hilltop Christian (NC) 5 21:39.9 95.9 37 43
44 Lucas Miller 9 Greenville Christian (TX) 2 21:51.8 95.0 38 44
45 Colby Patterson - Rocky Mount Academy (NC) 2 21:58.6 94.5 39 45
46 Kaden Patterson 11 Rocky Mount Academy (NC) 3 22:12.1 93.6 40 46
47 Tristan Everson 11 Overhills (NC) 10 22:12.4 93.6 47
48 Thomas Alphin 8 Cape Fear Academy (NC) 8 22:24.2 114.5 48
49 Baden Salinas 11 Cape Fear Academy (NC) 9 22:32.4 92.2 49
50 William Neuwirth 8 Cape Fear Academy (NC) 10 22:34.3 113.7 50
51 Ryder Brown 8 Greenville Christian (TX) 3 22:57.4 111.8 41 51
52 Mitchell McClutchey 10 Research Triangle (NC) 6 22:58.2 90.5 42 52
53 Micah Temple 7 Youngsville Academy (NC) 1 23:03.6 111.3 53
54 Jaiden Bond - Faith Christian Rocky Mount (NC) 1 23:30.7 109.2 54
55 Ryan Judice 9 Rosewood (NC) 3 23:33.0 88.2 55
56 Logan Lewis - Rocky Mount Academy (NC) 4 24:18.2 85.5 43 56
57 Malcolm McKiver 9 Research Triangle (NC) 7 24:19.8 85.4 44 57
58 Carter Zander 12 Wilson Christian (NC) 9 24:20.1 85.4 58
59 Jace Crawford 7 Greenville Christian (TX) 4 24:24.9 105.1 45 59
60 Cameron Jones 7 Greenville Christian (TX) 5 24:27.7 104.9 46 60
61 Kaeden Hardison 8 Faith Christian (IN) 5 25:39.6 100.0 47 61
62 Jameson Harrell 9 Rocky Mount Academy (NC) 5 25:53.4 80.2 48 62
63 Connor Brown 10 Overhills (NC) 11 26:03.2 79.7 63
64 Elisha Powell - Faith Christian Rocky Mount (NC) 2 26:31.2 78.3 64
65 Spencer Turner - Youngsville Academy (NC) 2 26:36.3 78.1 65
66 Alexander Comas Santiago 12 Overhills (NC) 12 26:46.6 77.6 66
67 Tyler Johnson 10 Overhills (NC) 13 27:02.3 76.8 67
68 Brandon Johnson 12 Overhills (NC) 14 27:18.1 76.1 68
69 Wilson Barnett 9 Rocky Mount Academy (NC) 6 28:26.7 73.0 49 69
70 Judson Barnett - Rocky Mount Academy (NC) 7 28:28.3 73.0 50 70
71 Paxton Whitehead 12 Research Triangle (NC) 8 28:47.6 72.2 71
72 John Amato 8 Hilltop Christian (NC) 6 29:48.2 86.1 51 72
73 Kaeden Jones 7 Youngsville Academy (NC) 3 31:32.3 65.9 73
74 Bronson Harrell 11 Rocky Mount Academy (NC) 8 39:28.6 52.6 74